Time;durP1;ratioP1;P1;durP2;ratioP2;P2;SDS_P1;SDS_P2;PMS_P1;PMS_P2;Temp;Humidity;BMP_temperature;BMP_pressure;BME280_temperature;BME280_humidity;BME280_pressure;Samples;Min_cycle;Max_cycle;Signal;HPM_P1;HPM_P2
2024/01/11 00:02:12;;;;;;;22.70;12.37;;;;;;;;;;5241977;28;20021;-74
2024/01/11 00:04:43;;;;;;;24.80;12.73;;;;;;;;;;5242479;28;20021;-73
2024/01/11 00:07:15;;;;;;;24.33;13.90;;;;;;;;;;5242511;28;20495;-73
2024/01/11 00:09:46;;;;;;;24.33;13.27;;;;;;;;;;5241830;28;20545;-74
2024/01/11 00:12:17;;;;;;;21.17;12.47;;;;;;;;;;5242431;28;20034;-74
2024/01/11 00:14:48;;;;;;;22.03;12.33;;;;;;;;;;5241758;28;20176;-73
2024/01/11 00:17:19;;;;;;;22.43;12.50;;;;;;;;;;5242162;28;20100;-74
2024/01/11 00:19:50;;;;;;;23.13;12.50;;;;;;;;;;5242150;28;20484;-75
2024/01/11 00:22:22;;;;;;;19.47;11.90;;;;;;;;;;5241053;28;20025;-74
2024/01/11 00:24:53;;;;;;;20.40;11.73;;;;;;;;;;5242452;28;20065;-74
2024/01/11 00:27:24;;;;;;;24.80;12.77;;;;;;;;;;5241240;28;20096;-73
2024/01/11 00:29:55;;;;;;;21.50;12.93;;;;;;;;;;5241534;28;20520;-73
2024/01/11 00:32:26;;;;;;;25.80;12.83;;;;;;;;;;5241547;28;20028;-73
2024/01/11 00:34:57;;;;;;;23.23;12.10;;;;;;;;;;5242039;28;20065;-74
2024/01/11 00:37:29;;;;;;;25.63;12.53;;;;;;;;;;5240929;28;20473;-74
2024/01/11 00:40:00;;;;;;;21.63;12.13;;;;;;;;;;5242343;28;20029;-73
2024/01/11 00:42:31;;;;;;;26.23;13.00;;;;;;;;;;5241885;28;20057;-74
2024/01/11 00:45:02;;;;;;;20.70;11.17;;;;;;;;;;5240955;28;20401;-74
2024/01/11 00:47:33;;;;;;;26.70;13.73;;;;;;;;;;5240672;28;20013;-74
2024/01/11 00:50:05;;;;;;;22.90;12.57;;;;;;;;;;5241146;28;20041;-74
2024/01/11 00:52:36;;;;;;;20.97;11.83;;;;;;;;;;5241487;28;20028;-74
2024/01/11 00:55:07;;;;;;;21.10;11.27;;;;;;;;;;5241510;28;20041;-73
2024/01/11 00:57:39;;;;;;;22.60;12.80;;;;;;;;;;5240618;28;20024;-73
2024/01/11 01:00:13;;;;;;;21.63;12.17;;;;;;;;;;5241115;28;20033;-74
2024/01/11 01:02:44;;;;;;;19.97;11.33;;;;;;;;;;5241697;28;20017;-73
2024/01/11 01:05:16;;;;;;;24.57;12.00;;;;;;;;;;5240534;28;20395;-73
2024/01/11 01:07:47;;;;;;;22.97;11.80;;;;;;;;;;5241336;28;20022;-73
2024/01/11 01:10:18;;;;;;;25.77;13.77;;;;;;;;;;5240770;28;20104;-74
2024/01/11 01:12:49;;;;;;;25.27;12.47;;;;;;;;;;5240574;28;20025;-73
2024/01/11 01:15:20;;;;;;;22.93;11.83;;;;;;;;;;5240979;28;20083;-73
2024/01/11 01:17:52;;;;;;;21.90;11.70;;;;;;;;;;5241406;28;20013;-74
2024/01/11 01:20:23;;;;;;;21.43;12.33;;;;;;;;;;5239975;28;20033;-74
2024/01/11 01:22:55;;;;;;;24.53;12.43;;;;;;;;;;5241604;28;20040;-73
2024/01/11 01:25:26;;;;;;;20.23;12.17;;;;;;;;;;5240208;28;20028;-74
2024/01/11 01:27:59;;;;;;;21.97;11.87;;;;;;;;;;5241238;28;20021;-74
2024/01/11 01:30:30;;;;;;;19.90;11.97;;;;;;;;;;5240795;28;20125;-74
2024/01/11 01:33:01;;;;;;;21.73;11.60;;;;;;;;;;5240213;28;20499;-73
2024/01/11 01:35:34;;;;;;;22.83;13.13;;;;;;;;;;5240640;28;20044;-73
2024/01/11 01:38:05;;;;;;;21.30;12.33;;;;;;;;;;5241074;28;20013;-73
2024/01/11 01:40:37;;;;;;;22.70;11.60;;;;;;;;;;5240044;28;20025;-73
2024/01/11 01:43:12;;;;;;;21.67;12.63;;;;;;;;;;5240994;28;20025;-73
2024/01/11 01:45:44;;;;;;;25.60;13.87;;;;;;;;;;5240932;28;20030;-73
2024/01/11 01:48:15;;;;;;;27.73;13.10;;;;;;;;;;5240002;28;20022;-73
2024/01/11 01:50:50;;;;;;;21.57;12.23;;;;;;;;;;5241001;28;20033;-73
2024/01/11 01:53:22;;;;;;;24.43;13.70;;;;;;;;;;5239246;28;20025;-74
2024/01/11 01:55:53;;;;;;;24.97;12.93;;;;;;;;;;5240518;28;20476;-74
2024/01/11 01:58:24;;;;;;;25.77;12.90;;;;;;;;;;5239922;28;20097;-74
2024/01/11 02:00:57;;;;;;;25.57;13.00;;;;;;;;;;5240175;28;20033;-74
2024/01/11 02:03:29;;;;;;;23.40;12.23;;;;;;;;;;5240464;28;20014;-75
2024/01/11 02:06:00;;;;;;;26.23;12.97;;;;;;;;;;5239961;28;20025;-73
2024/01/11 02:08:32;;;;;;;24.00;11.47;;;;;;;;;;5239427;28;20080;-72
2024/01/11 02:11:03;;;;;;;23.20;12.50;;;;;;;;;;5240099;28;20018;-73
2024/01/11 02:13:34;;;;;;;23.03;12.40;;;;;;;;;;5240230;28;20025;-72
2024/01/11 02:16:07;;;;;;;23.97;11.90;;;;;;;;;;5239575;28;20484;-73
2024/01/11 02:18:38;;;;;;;23.47;12.50;;;;;;;;;;5240223;28;20017;-73
2024/01/11 02:21:11;;;;;;;21.73;11.83;;;;;;;;;;5239920;28;20025;-73
2024/01/11 02:23:45;;;;;;;24.07;12.60;;;;;;;;;;5239321;28;20464;-73
2024/01/11 02:26:16;;;;;;;24.13;13.10;;;;;;;;;;5240223;28;20029;-73
2024/01/11 02:28:47;;;;;;;22.60;13.10;;;;;;;;;;5238743;28;20049;-73
2024/01/11 02:31:18;;;;;;;21.23;11.97;;;;;;;;;;5239878;28;20041;-73
2024/01/11 02:33:51;;;;;;;25.87;12.80;;;;;;;;;;5239724;28;20426;-72
2024/01/11 02:36:22;;;;;;;26.47;12.53;;;;;;;;;;5238590;28;20031;-73
2024/01/11 02:38:54;;;;;;;25.63;13.97;;;;;;;;;;5240044;28;20395;-72
2024/01/11 02:41:25;;;;;;;21.87;11.80;;;;;;;;;;5239505;28;20461;-73
2024/01/11 02:43:57;;;;;;;24.37;12.13;;;;;;;;;;5239259;28;20554;-73
2024/01/11 02:46:28;;;;;;;21.93;11.93;;;;;;;;;;5239339;28;20108;-73
2024/01/11 02:48:59;;;;;;;23.60;13.00;;;;;;;;;;5239526;28;20075;-73
2024/01/11 02:51:30;;;;;;;25.07;12.90;;;;;;;;;;5238710;28;20388;-73
2024/01/11 02:54:01;;;;;;;22.67;12.13;;;;;;;;;;5239644;28;20014;-72
2024/01/11 02:56:33;;;;;;;21.97;11.73;;;;;;;;;;5238934;28;20021;-73
2024/01/11 02:59:04;;;;;;;23.03;13.83;;;;;;;;;;5239255;28;20022;-73
2024/01/11 03:01:35;;;;;;;27.37;13.07;;;;;;;;;;5239620;28;20050;-72
2024/01/11 03:04:06;;;;;;;24.00;12.80;;;;;;;;;;5238792;28;20129;-73
2024/01/11 03:06:37;;;;;;;23.93;12.83;;;;;;;;;;5239511;28;20124;-72
2024/01/11 03:09:09;;;;;;;21.53;12.37;;;;;;;;;;5239436;28;20104;-73
2024/01/11 03:11:40;;;;;;;24.13;12.90;;;;;;;;;;5241258;28;20486;-73
2024/01/11 03:14:11;;;;;;;25.60;12.77;;;;;;;;;;5243406;28;20021;-73
2024/01/11 03:16:43;;;;;;;26.93;13.90;;;;;;;;;;5243159;28;20021;-73
2024/01/11 03:19:14;;;;;;;24.80;12.80;;;;;;;;;;5242912;28;20463;-73
2024/01/11 03:21:46;;;;;;;29.77;14.03;;;;;;;;;;5243490;28;20013;-72
2024/01/11 03:24:17;;;;;;;25.93;13.33;;;;;;;;;;5243457;28;20108;-72
2024/01/11 03:26:48;;;;;;;23.53;12.83;;;;;;;;;;5242518;28;20017;-72
2024/01/11 03:29:19;;;;;;;28.23;12.93;;;;;;;;;;5242738;28;20049;-73
2024/01/11 03:31:51;;;;;;;27.23;12.63;;;;;;;;;;5242063;28;20017;-73
2024/01/11 03:34:22;;;;;;;26.63;13.83;;;;;;;;;;5242724;28;20037;-73
2024/01/11 03:36:53;;;;;;;26.80;13.63;;;;;;;;;;5243597;28;20473;-73
2024/01/11 03:39:25;;;;;;;24.93;13.53;;;;;;;;;;5241908;28;20044;-73
2024/01/11 03:41:56;;;;;;;25.70;13.30;;;;;;;;;;5242938;28;20021;-73
2024/01/11 03:44:27;;;;;;;24.48;13.30;;;;;;;;;;5243080;28;20053;-73
2024/01/11 03:46:58;;;;;;;23.40;12.80;;;;;;;;;;5242336;28;20029;-73
2024/01/11 03:49:29;;;;;;;26.53;14.07;;;;;;;;;;5242288;28;20523;-73
2024/01/11 03:52:01;;;;;;;25.17;13.27;;;;;;;;;;5242657;28;20380;-73
2024/01/11 03:54:32;;;;;;;21.60;12.47;;;;;;;;;;5241853;28;20112;-72
2024/01/11 03:57:03;;;;;;;25.00;13.03;;;;;;;;;;5242415;28;20114;-72
2024/01/11 03:59:35;;;;;;;26.33;13.33;;;;;;;;;;5242328;28;20376;-73
2024/01/11 04:02:06;;;;;;;23.17;13.20;;;;;;;;;;5241048;28;20025;-73
2024/01/11 04:04:38;;;;;;;23.27;13.07;;;;;;;;;;5242303;28;20032;-73
2024/01/11 04:07:09;;;;;;;24.53;12.73;;;;;;;;;;5241779;28;20032;-72
2024/01/11 04:09:40;;;;;;;25.67;13.30;;;;;;;;;;5242607;28;20459;-72
2024/01/11 04:12:11;;;;;;;23.37;12.70;;;;;;;;;;5242475;28;20031;-72
2024/01/11 04:14:42;;;;;;;25.23;13.27;;;;;;;;;;5241725;28;20376;-72
2024/01/11 04:17:14;;;;;;;21.73;11.83;;;;;;;;;;5241967;28;20040;-73
2024/01/11 04:19:45;;;;;;;22.23;12.47;;;;;;;;;;5242202;28;20014;-73
2024/01/11 04:22:16;;;;;;;22.80;12.63;;;;;;;;;;5241377;28;20025;-72
2024/01/11 04:24:47;;;;;;;22.97;13.07;;;;;;;;;;5242037;28;20095;-73
2024/01/11 04:27:18;;;;;;;26.17;13.80;;;;;;;;;;5241867;28;20037;-73
2024/01/11 04:29:50;;;;;;;26.77;13.57;;;;;;;;;;5241496;28;20400;-72
2024/01/11 04:32:21;;;;;;;27.23;14.23;;;;;;;;;;5241908;28;20033;-73
2024/01/11 04:34:52;;;;;;;23.10;12.77;;;;;;;;;;5242295;28;20428;-72
2024/01/11 04:37:23;;;;;;;25.67;13.13;;;;;;;;;;5241055;28;20025;-72
2024/01/11 04:39:54;;;;;;;23.37;12.80;;;;;;;;;;5242436;28;20415;-72
2024/01/11 04:42:28;;;;;;;23.30;12.97;;;;;;;;;;5241018;28;20039;-72
2024/01/11 04:45:00;;;;;;;26.10;13.97;;;;;;;;;;5241831;28;20376;-73
2024/01/11 04:47:32;;;;;;;22.57;11.63;;;;;;;;;;5241635;28;20030;-72
2024/01/11 04:50:04;;;;;;;25.07;12.97;;;;;;;;;;5240864;28;20051;-73
2024/01/11 04:52:35;;;;;;;25.80;12.70;;;;;;;;;;5241564;28;20364;-72
2024/01/11 04:55:06;;;;;;;22.87;12.57;;;;;;;;;;5241594;28;20079;-72
2024/01/11 04:57:38;;;;;;;21.50;12.60;;;;;;;;;;5240688;28;20013;-72
2024/01/11 05:00:09;;;;;;;24.37;13.07;;;;;;;;;;5241394;28;20025;-72
2024/01/11 05:02:40;;;;;;;22.97;12.53;;;;;;;;;;5241406;28;20028;-73
2024/01/11 05:05:11;;;;;;;25.97;13.37;;;;;;;;;;5240201;28;20046;-74
2024/01/11 05:07:43;;;;;;;21.63;11.83;;;;;;;;;;5240997;28;20021;-72
2024/01/11 05:10:14;;;;;;;22.97;12.50;;;;;;;;;;5240108;28;20536;-72
2024/01/11 05:12:45;;;;;;;24.20;11.77;;;;;;;;;;5240881;28;20133;-72
2024/01/11 05:15:16;;;;;;;24.33;11.97;;;;;;;;;;5240753;28;20041;-72
2024/01/11 05:17:47;;;;;;;21.03;11.10;;;;;;;;;;5239819;28;20017;-73
2024/01/11 05:20:18;;;;;;;22.77;12.10;;;;;;;;;;5240718;28;20484;-74
2024/01/11 05:22:50;;;;;;;24.10;12.27;;;;;;;;;;5240736;28;20369;-72
2024/01/11 05:25:21;;;;;;;23.20;12.37;;;;;;;;;;5240082;28;20465;-73
2024/01/11 05:27:52;;;;;;;23.60;12.47;;;;;;;;;;5241155;28;20017;-73
2024/01/11 05:30:23;;;;;;;24.73;11.87;;;;;;;;;;5240429;28;20091;-72
2024/01/11 05:32:55;;;;;;;23.33;12.50;;;;;;;;;;5239718;28;20063;-72
2024/01/11 05:35:28;;;;;;;22.23;12.07;;;;;;;;;;5240416;28;20464;-72
2024/01/11 05:38:00;;;;;;;22.70;12.90;;;;;;;;;;5240704;28;20018;-72
2024/01/11 05:40:31;;;;;;;24.93;12.03;;;;;;;;;;5240258;28;20067;-72
2024/01/11 05:43:02;;;;;;;19.30;11.33;;;;;;;;;;5240952;28;20140;-72
2024/01/11 05:45:34;;;;;;;22.53;11.63;;;;;;;;;;5239925;28;20045;-72
2024/01/11 05:48:05;;;;;;;20.83;11.87;;;;;;;;;;5240392;28;20026;-72
2024/01/11 05:50:37;;;;;;;21.73;11.43;;;;;;;;;;5240625;28;20025;-72
2024/01/11 05:53:08;;;;;;;20.20;11.37;;;;;;;;;;5239457;28;20025;-72
2024/01/11 05:55:39;;;;;;;20.67;11.67;;;;;;;;;;5240164;28;20359;-72
2024/01/11 05:58:10;;;;;;;19.27;10.70;;;;;;;;;;5240007;28;20469;-72
2024/01/11 06:00:41;;;;;;;19.77;11.07;;;;;;;;;;5239525;28;20018;-72
2024/01/11 06:03:13;;;;;;;23.50;11.50;;;;;;;;;;5240358;28;20075;-72
2024/01/11 06:05:44;;;;;;;23.37;11.70;;;;;;;;;;5240113;28;20028;-72
2024/01/11 06:08:15;;;;;;;19.80;10.10;;;;;;;;;;5239067;28;20029;-72
2024/01/11 06:10:46;;;;;;;19.77;11.07;;;;;;;;;;5239395;28;20167;-72
2024/01/11 06:13:18;;;;;;;20.10;10.33;;;;;;;;;;5240300;28;20032;-73
2024/01/11 06:15:50;;;;;;;21.20;10.97;;;;;;;;;;5238711;28;20064;-72
2024/01/11 06:18:21;;;;;;;19.43;10.20;;;;;;;;;;5239371;28;20026;-72
2024/01/11 06:20:52;;;;;;;20.40;11.30;;;;;;;;;;5239180;28;20033;-72
2024/01/11 06:23:24;;;;;;;20.73;10.77;;;;;;;;;;5239744;28;20036;-72
2024/01/11 06:25:55;;;;;;;21.80;11.63;;;;;;;;;;5239814;28;20100;-72
2024/01/11 06:28:26;;;;;;;24.13;11.03;;;;;;;;;;5238214;28;20592;-71
2024/01/11 06:30:58;;;;;;;19.67;10.47;;;;;;;;;;5239931;28;20368;-71
2024/01/11 06:33:29;;;;;;;19.13;10.87;;;;;;;;;;5239503;28;20100;-72
2024/01/11 06:36:00;;;;;;;17.73;9.60;;;;;;;;;;5238738;28;20029;-72
2024/01/11 06:38:31;;;;;;;19.30;9.43;;;;;;;;;;5239655;28;20025;-72
2024/01/11 06:41:02;;;;;;;22.20;10.47;;;;;;;;;;5239732;28;20112;-73
2024/01/11 06:43:34;;;;;;;17.87;10.53;;;;;;;;;;5238868;28;20010;-72
2024/01/11 06:46:06;;;;;;;19.43;10.20;;;;;;;;;;5240993;28;20017;-72
2024/01/11 06:48:37;;;;;;;21.60;11.33;;;;;;;;;;5243243;28;20018;-72
2024/01/11 06:51:09;;;;;;;20.33;10.70;;;;;;;;;;5243567;28;20041;-72
2024/01/11 06:53:40;;;;;;;19.50;10.13;;;;;;;;;;5244055;28;21117;-72
2024/01/11 06:56:15;;;;;;;17.70;10.27;;;;;;;;;;5242903;28;20033;-72
2024/01/11 06:58:46;;;;;;;18.00;9.90;;;;;;;;;;5243478;28;20013;-72
2024/01/11 07:01:17;;;;;;;19.57;10.37;;;;;;;;;;5243463;28;20029;-72
2024/01/11 07:03:49;;;;;;;19.03;9.77;;;;;;;;;;5242275;28;20143;-72
2024/01/11 07:06:20;;;;;;;19.80;10.43;;;;;;;;;;5243441;28;20021;-72
2024/01/11 07:08:51;;;;;;;20.40;10.77;;;;;;;;;;5243686;28;20372;-73
2024/01/11 07:11:23;;;;;;;18.43;10.47;;;;;;;;;;5242853;28;20032;-73
2024/01/11 07:13:55;;;;;;;22.57;10.93;;;;;;;;;;5243912;28;20112;-73
2024/01/11 07:16:26;;;;;;;17.87;10.40;;;;;;;;;;5243127;28;20034;-74
2024/01/11 07:18:58;;;;;;;19.30;10.40;;;;;;;;;;5242549;28;20029;-73
2024/01/11 07:21:29;;;;;;;21.03;11.00;;;;;;;;;;5243224;28;20029;-73
2024/01/11 07:24:00;;;;;;;22.27;11.07;;;;;;;;;;5242297;28;20013;-73
2024/01/11 07:26:31;;;;;;;20.47;10.90;;;;;;;;;;5243041;28;20492;-73
2024/01/11 07:29:03;;;;;;;19.90;11.27;;;;;;;;;;5243146;28;20379;-73
2024/01/11 07:31:34;;;;;;;23.63;11.87;;;;;;;;;;5242075;28;20026;-73
2024/01/11 07:34:05;;;;;;;23.47;11.17;;;;;;;;;;5242881;28;20021;-72
2024/01/11 07:36:36;;;;;;;26.83;12.13;;;;;;;;;;5243298;28;20487;-73
2024/01/11 07:39:07;;;;;;;22.63;12.13;;;;;;;;;;5242480;28;20021;-73
2024/01/11 07:41:39;;;;;;;21.03;11.30;;;;;;;;;;5243195;28;20034;-73
2024/01/11 07:44:10;;;;;;;19.90;11.23;;;;;;;;;;5243094;28;20040;-73
2024/01/11 07:46:42;;;;;;;22.27;12.00;;;;;;;;;;5242251;28;20030;-73
2024/01/11 07:49:13;;;;;;;19.80;11.53;;;;;;;;;;5243095;28;20428;-73
2024/01/11 07:51:44;;;;;;;22.40;12.03;;;;;;;;;;5242192;28;20017;-72
2024/01/11 07:54:15;;;;;;;20.40;10.87;;;;;;;;;;5241930;28;20026;-72
2024/01/11 07:56:46;;;;;;;20.33;10.67;;;;;;;;;;5242162;28;20107;-72
2024/01/11 07:59:18;;;;;;;19.97;10.67;;;;;;;;;;5241948;28;20104;-72
2024/01/11 08:01:49;;;;;;;20.93;10.33;;;;;;;;;;5242959;28;20393;-72
2024/01/11 08:04:20;;;;;;;20.37;10.27;;;;;;;;;;5241207;28;20061;-72
2024/01/11 08:06:52;;;;;;;21.47;10.50;;;;;;;;;;5242204;28;20044;-73
2024/01/11 08:09:24;;;;;;;21.23;10.03;;;;;;;;;;5242122;28;20018;-72
2024/01/11 08:11:55;;;;;;;19.87;10.00;;;;;;;;;;5242937;28;20018;-73
2024/01/11 08:14:27;;;;;;;18.77;9.83;;;;;;;;;;5241417;28;20036;-73
2024/01/11 08:16:58;;;;;;;18.47;10.13;;;;;;;;;;5242656;28;20384;-73
2024/01/11 08:19:30;;;;;;;17.40;10.00;;;;;;;;;;5242432;28;20021;-73
2024/01/11 08:22:02;;;;;;;17.50;10.10;;;;;;;;;;5241526;28;20095;-73
2024/01/11 08:24:35;;;;;;;17.77;9.33;;;;;;;;;;5242246;28;20025;-73
2024/01/11 08:27:06;;;;;;;16.87;9.23;;;;;;;;;;5241301;28;20029;-72
2024/01/11 08:29:37;;;;;;;17.03;9.57;;;;;;;;;;5242092;28;20041;-72
2024/01/11 08:32:09;;;;;;;18.00;10.23;;;;;;;;;;5241944;28;20032;-71
2024/01/11 08:34:40;;;;;;;15.80;9.23;;;;;;;;;;5241225;28;20111;-73
2024/01/11 08:37:11;;;;;;;16.67;9.17;;;;;;;;;;5242164;28;20025;-72
2024/01/11 08:39:42;;;;;;;18.90;9.93;;;;;;;;;;5242528;28;20047;-71
2024/01/11 08:42:15;;;;;;;18.10;10.00;;;;;;;;;;5241317;28;20021;-72
2024/01/11 08:44:47;;;;;;;17.83;9.83;;;;;;;;;;5242299;28;20497;-73
2024/01/11 08:47:18;;;;;;;16.53;9.40;;;;;;;;;;5242282;28;20469;-72
2024/01/11 08:49:49;;;;;;;15.13;9.27;;;;;;;;;;5241298;28;20044;-74
2024/01/11 08:52:22;;;;;;;18.80;10.37;;;;;;;;;;5242062;28;20424;-73
2024/01/11 08:54:53;;;;;;;21.10;11.40;;;;;;;;;;5242299;28;20037;-74
2024/01/11 08:57:24;;;;;;;17.10;9.70;;;;;;;;;;5240492;28;20028;-74
2024/01/11 08:59:56;;;;;;;19.83;11.40;;;;;;;;;;5242597;28;20029;-73
2024/01/11 09:02:27;;;;;;;21.33;11.97;;;;;;;;;;5240899;28;20041;-76
2024/01/11 09:04:58;;;;;;;20.27;10.73;;;;;;;;;;5241527;28;20025;-73
2024/01/11 09:07:30;;;;;;;21.90;11.40;;;;;;;;;;5241076;28;20056;-73
2024/01/11 09:10:01;;;;;;;18.37;10.70;;;;;;;;;;5239896;28;20025;-72
2024/01/11 09:12:33;;;;;;;19.73;10.53;;;;;;;;;;5235566;28;20677;-73
2024/01/11 09:15:05;;;;;;;16.97;9.90;;;;;;;;;;5240953;28;20032;-74
2024/01/11 09:17:37;;;;;;;21.13;10.93;;;;;;;;;;5240395;28;20017;-75
2024/01/11 09:20:09;;;;;;;20.43;11.03;;;;;;;;;;5241261;28;20083;-74
2024/01/11 09:22:41;;;;;;;19.03;10.47;;;;;;;;;;5241238;28;20022;-74
2024/01/11 09:25:12;;;;;;;18.93;11.27;;;;;;;;;;5238325;28;20021;-73
2024/01/11 09:27:43;;;;;;;20.87;11.23;;;;;;;;;;5239473;28;20067;-74
2024/01/11 09:30:14;;;;;;;18.27;10.20;;;;;;;;;;5240781;28;20060;-74
2024/01/11 09:32:45;;;;;;;17.97;10.40;;;;;;;;;;5240095;28;20017;-75
2024/01/11 09:35:17;;;;;;;18.07;10.97;;;;;;;;;;5240861;28;20098;-75
2024/01/11 09:37:48;;;;;;;20.77;11.83;;;;;;;;;;5240147;28;20020;-74
2024/01/11 09:40:20;;;;;;;18.83;10.40;;;;;;;;;;5240912;28;20384;-75
2024/01/11 09:42:52;;;;;;;21.07;12.03;;;;;;;;;;5240853;28;20013;-75
2024/01/11 09:45:25;;;;;;;19.53;11.57;;;;;;;;;;5239828;28;20071;-75
2024/01/11 09:47:56;;;;;;;22.23;12.53;;;;;;;;;;5240941;28;20071;-74
2024/01/11 09:50:28;;;;;;;22.27;12.63;;;;;;;;;;5240369;28;20027;-74
2024/01/11 09:53:03;;;;;;;24.90;13.37;;;;;;;;;;5239625;28;20029;-75
2024/01/11 09:55:36;;;;;;;21.27;13.07;;;;;;;;;;5240230;28;20021;-75
2024/01/11 09:58:09;;;;;;;23.83;13.40;;;;;;;;;;5240410;28;20076;-75
2024/01/11 10:00:41;;;;;;;20.10;11.93;;;;;;;;;;5240070;28;20025;-75
2024/01/11 10:03:12;;;;;;;21.50;12.43;;;;;;;;;;5240693;28;20029;-75
2024/01/11 10:05:44;;;;;;;23.57;12.53;;;;;;;;;;5239818;28;20025;-74
2024/01/11 10:08:15;;;;;;;21.80;12.43;;;;;;;;;;5240222;28;20053;-75
2024/01/11 10:10:46;;;;;;;23.50;12.90;;;;;;;;;;5240303;28;20030;-74
2024/01/11 10:13:18;;;;;;;22.40;13.67;;;;;;;;;;5239468;28;20025;-74
2024/01/11 10:15:49;;;;;;;26.27;13.10;;;;;;;;;;5239952;28;20025;-75
2024/01/11 10:18:23;;;;;;;25.73;13.10;;;;;;;;;;5239800;28;20079;-74
2024/01/11 10:20:54;;;;;;;23.57;13.27;;;;;;;;;;5239597;28;20066;-74
2024/01/11 10:23:28;;;;;;;21.10;12.73;;;;;;;;;;5240027;28;20404;-73
2024/01/11 10:26:00;;;;;;;23.20;13.10;;;;;;;;;;5240280;28;20044;-74
2024/01/11 10:28:32;;;;;;;25.47;13.23;;;;;;;;;;5239314;28;20037;-74
2024/01/11 10:31:05;;;;;;;20.70;11.93;;;;;;;;;;5239995;28;20026;-75
2024/01/11 10:33:37;;;;;;;21.70;12.37;;;;;;;;;;5239839;28;20092;-75
2024/01/11 10:36:09;;;;;;;22.33;12.57;;;;;;;;;;5239959;28;20037;-75
2024/01/11 10:38:41;;;;;;;24.23;13.07;;;;;;;;;;5239942;28;20092;-74
2024/01/11 10:41:12;;;;;;;22.13;13.70;;;;;;;;;;5238838;28;20129;-74
2024/01/11 10:43:45;;;;;;;21.60;12.73;;;;;;;;;;5239923;28;20079;-75
2024/01/11 10:46:22;;;;;;;22.83;13.40;;;;;;;;;;5240121;28;20017;-75
2024/01/11 10:48:55;;;;;;;23.63;13.20;;;;;;;;;;5239139;28;20098;-74
2024/01/11 10:51:27;;;;;;;24.30;14.10;;;;;;;;;;5239430;28;20112;-75
2024/01/11 10:53:59;;;;;;;28.77;15.10;;;;;;;;;;5239700;28;20022;-75
2024/01/11 10:56:31;;;;;;;23.60;13.97;;;;;;;;;;5239328;28;20040;-75
2024/01/11 10:59:03;;;;;;;23.83;13.43;;;;;;;;;;5239965;28;20013;-75
2024/01/11 11:01:34;;;;;;;25.63;14.33;;;;;;;;;;5240026;28;20018;-75
2024/01/11 11:04:07;;;;;;;21.20;13.30;;;;;;;;;;5239063;28;20101;-77
2024/01/11 11:06:39;;;;;;;21.50;13.53;;;;;;;;;;5239634;28;20022;-75
2024/01/11 11:09:11;;;;;;;25.60;14.00;;;;;;;;;;5239131;28;20071;-76
2024/01/11 11:11:44;;;;;;;25.77;15.53;;;;;;;;;;5239745;28;20022;-76
2024/01/11 11:14:15;;;;;;;25.00;14.33;;;;;;;;;;5239276;28;20503;-77
2024/01/11 11:16:47;;;;;;;25.23;14.57;;;;;;;;;;5238581;28;20041;-75
2024/01/11 11:19:19;;;;;;;25.27;13.83;;;;;;;;;;5239712;28;20014;-76
2024/01/11 11:21:51;;;;;;;22.57;14.27;;;;;;;;;;5239648;28;20457;-76
2024/01/11 11:24:22;;;;;;;26.20;14.33;;;;;;;;;;5238660;28;20032;-77
2024/01/11 11:26:57;;;;;;;25.63;15.40;;;;;;;;;;5239898;28;20013;-75
2024/01/11 11:29:28;;;;;;;25.13;14.93;;;;;;;;;;5239091;28;20041;-76
2024/01/11 11:31:59;;;;;;;26.23;15.77;;;;;;;;;;5240072;28;20038;-78
2024/01/11 11:34:41;;;;;;;27.23;15.57;;;;;;;;;;5243399;28;20104;-77
2024/01/11 11:37:12;;;;;;;30.20;16.57;;;;;;;;;;5242611;28;20585;-77
2024/01/11 11:39:43;;;;;;;23.47;14.00;;;;;;;;;;5242948;28;20021;-77
2024/01/11 11:42:15;;;;;;;27.93;15.33;;;;;;;;;;5243311;28;20044;-77
2024/01/11 11:44:50;;;;;;;26.40;15.20;;;;;;;;;;5242322;28;20029;-77
2024/01/11 11:47:22;;;;;;;25.47;15.80;;;;;;;;;;5242837;28;20101;-77
2024/01/11 11:50:07;;;;;;;23.83;13.93;;;;;;;;;;5243139;28;20102;-77
2024/01/11 11:52:39;;;;;;;25.80;15.73;;;;;;;;;;5242375;28;20422;-77
2024/01/11 11:55:11;;;;;;;27.57;15.87;;;;;;;;;;5243185;28;20112;-78
2024/01/11 11:57:42;;;;;;;26.07;14.53;;;;;;;;;;5243182;28;20009;-78
2024/01/11 12:00:16;;;;;;;25.40;14.97;;;;;;;;;;5242344;28;20484;-77
2024/01/11 12:02:47;;;;;;;27.17;14.70;;;;;;;;;;5242851;28;20022;-77
2024/01/11 12:05:18;;;;;;;24.43;13.77;;;;;;;;;;5241885;28;20617;-77
2024/01/11 12:07:50;;;;;;;24.53;15.03;;;;;;;;;;5242978;28;20471;-78
2024/01/11 12:10:22;;;;;;;25.77;15.03;;;;;;;;;;5242637;28;20022;-78
2024/01/11 12:12:54;;;;;;;22.20;14.33;;;;;;;;;;5242512;28;20069;-78
2024/01/11 12:15:26;;;;;;;26.03;15.07;;;;;;;;;;5242313;28;20029;-77
2024/01/11 12:17:58;;;;;;;21.80;13.53;;;;;;;;;;5242803;28;20499;-77
2024/01/11 12:20:29;;;;;;;27.23;15.17;;;;;;;;;;5242111;28;20033;-78
2024/01/11 12:23:02;;;;;;;24.37;14.27;;;;;;;;;;5242442;28;20052;-78
2024/01/11 12:25:34;;;;;;;26.30;16.07;;;;;;;;;;5242178;28;20018;-78
2024/01/11 12:28:06;;;;;;;24.87;15.87;;;;;;;;;;5241556;28;20044;-78
2024/01/11 12:30:37;;;;;;;30.63;17.37;;;;;;;;;;5242521;28;20116;-78
2024/01/11 12:33:09;;;;;;;26.47;16.50;;;;;;;;;;5242364;28;20017;-78
2024/01/11 12:35:40;;;;;;;24.30;14.90;;;;;;;;;;5241675;28;20175;-78
2024/01/11 12:38:11;;;;;;;26.03;16.33;;;;;;;;;;5242300;28;20373;-78
2024/01/11 12:40:43;;;;;;;27.87;16.33;;;;;;;;;;5241685;28;20086;-78
2024/01/11 12:43:15;;;;;;;23.27;14.10;;;;;;;;;;5240811;28;20109;-78
2024/01/11 12:45:46;;;;;;;27.50;16.30;;;;;;;;;;5241965;28;20097;-78
2024/01/11 12:48:18;;;;;;;30.40;16.90;;;;;;;;;;5240828;28;20044;-76
2024/01/11 12:50:50;;;;;;;24.40;16.00;;;;;;;;;;5242167;28;20028;-77
2024/01/11 12:53:21;;;;;;;29.43;17.90;;;;;;;;;;5241899;28;20025;-76
2024/01/11 12:56:08;;;;;;;30.13;17.77;;;;;;;;;;5241126;28;20037;-76
2024/01/11 12:58:39;;;;;;;31.63;19.77;;;;;;;;;;5241836;28;20496;-77
2024/01/11 13:01:11;;;;;;;31.73;19.53;;;;;;;;;;5241648;28;20055;-74
2024/01/11 13:03:44;;;;;;;30.87;18.93;;;;;;;;;;5240893;28;20025;-75
2024/01/11 13:06:16;;;;;;;34.23;19.47;;;;;;;;;;5241669;28;20026;-76
2024/01/11 13:08:48;;;;;;;36.90;20.53;;;;;;;;;;5240819;28;20361;-76
2024/01/11 13:11:21;;;;;;;33.23;20.23;;;;;;;;;;5241401;28;20018;-76
2024/01/11 13:13:52;;;;;;;34.80;20.30;;;;;;;;;;5241395;28;20104;-76
2024/01/11 13:16:24;;;;;;;27.87;17.93;;;;;;;;;;5239954;28;20124;-75
2024/01/11 13:18:55;;;;;;;27.33;17.77;;;;;;;;;;5241057;28;20018;-79
2024/01/11 13:21:26;;;;;;;26.90;17.27;;;;;;;;;;5241111;28;20495;-75
2024/01/11 13:23:58;;;;;;;25.43;16.60;;;;;;;;;;5240612;28;20022;-77
2024/01/11 13:26:29;;;;;;;28.30;17.57;;;;;;;;;;5241251;28;20376;-78
2024/01/11 13:29:00;;;;;;;22.97;15.73;;;;;;;;;;5240823;28;20061;-78
2024/01/11 13:31:32;;;;;;;21.07;14.83;;;;;;;;;;5239763;28;20111;-79
2024/01/11 13:34:03;;;;;;;22.53;15.60;;;;;;;;;;5240806;28;20101;-79
2024/01/11 13:36:34;;;;;;;21.50;13.30;;;;;;;;;;5240291;28;20047;-78
2024/01/11 13:39:08;;;;;;;20.80;14.00;;;;;;;;;;5241325;28;20021;-78
2024/01/11 13:41:40;;;;;;;17.03;10.30;;;;;;;;;;5241003;28;20037;-79
2024/01/11 13:44:12;;;;;;;14.10;8.37;;;;;;;;;;5240162;28;20009;-79
2024/01/11 13:46:43;;;;;;;12.47;7.00;;;;;;;;;;5240259;28;20040;-79
2024/01/11 13:49:15;;;;;;;14.40;8.23;;;;;;;;;;5240706;28;20018;-79
2024/01/11 13:51:47;;;;;;;14.67;6.90;;;;;;;;;;5240145;28;20488;-79
2024/01/11 13:54:18;;;;;;;13.17;7.27;;;;;;;;;;5240212;28;20013;-80
2024/01/11 13:56:52;;;;;;;11.80;7.00;;;;;;;;;;5240443;28;20543;-79
2024/01/11 13:59:23;;;;;;;12.70;7.47;;;;;;;;;;5239574;28;20071;-79
2024/01/11 14:01:54;;;;;;;13.70;7.47;;;;;;;;;;5240876;28;20025;-80
2024/01/11 14:04:26;;;;;;;13.80;7.47;;;;;;;;;;5240276;28;20029;-79
2024/01/11 14:06:57;;;;;;;13.37;7.70;;;;;;;;;;5239676;28;20013;-75
2024/01/11 14:09:28;;;;;;;14.80;8.17;;;;;;;;;;5240394;28;20103;-75
2024/01/11 14:11:59;;;;;;;15.10;7.47;;;;;;;;;;5238961;28;20100;-78
2024/01/11 14:14:31;;;;;;;13.20;6.97;;;;;;;;;;5240258;28;20385;-79
2024/01/11 14:17:02;;;;;;;13.13;6.97;;;;;;;;;;5234700;28;20040;-76
2024/01/11 14:19:33;;;;;;;12.10;6.97;;;;;;;;;;5227282;28;20021;-77
2024/01/11 14:22:04;;;;;;;11.00;5.93;;;;;;;;;;5221391;28;20024;-77
2024/01/11 14:24:35;;;;;;;11.93;7.03;;;;;;;;;;5227582;28;20033;-76
2024/01/11 14:27:07;;;;;;;16.53;8.60;;;;;;;;;;5218921;28;20100;-77
2024/01/11 14:29:39;;;;;;;14.17;7.70;;;;;;;;;;5216523;28;20049;-77
2024/01/11 14:32:11;;;;;;;14.50;8.07;;;;;;;;;;5219179;28;20010;-77
2024/01/11 14:34:43;;;;;;;13.27;6.97;;;;;;;;;;5218315;28;20034;-78
2024/01/11 14:37:15;;;;;;;13.07;7.70;;;;;;;;;;5219085;28;20491;-78
2024/01/11 14:39:46;;;;;;;14.53;8.67;;;;;;;;;;5230918;28;20029;-76
2024/01/11 14:42:17;;;;;;;14.70;8.30;;;;;;;;;;5239476;28;20079;-77
2024/01/11 14:44:48;;;;;;;16.17;8.23;;;;;;;;;;5239969;28;20464;-77